Time;durP1;ratioP1;P1;durP2;ratioP2;P2;SDS_P1;SDS_P2;PMS_P1;PMS_P2;Temp;Humidity;BMP_temperature;BMP_pressure;BME280_temperature;BME280_humidity;BME280_pressure;Samples;Min_cycle;Max_cycle;Signal;HPM_P1;HPM_P2
2021/08/15 00:00:39;;;;;;;8.05;4.35;;;;;;;16.79;100.00;100972.28;5029956;28;20220;-77
2021/08/15 00:03:08;;;;;;;6.38;4.00;;;;;;;16.77;100.00;100975.34;5013818;28;20204;-77
2021/08/15 00:05:38;;;;;;;9.38;4.20;;;;;;;16.82;100.00;100974.44;5009891;28;20927;-77
2021/08/15 00:08:04;;;;;;;8.40;4.40;;;;;;;16.75;100.00;100980.31;5050294;28;20231;-76
2021/08/15 00:10:30;;;;;;;8.75;4.90;;;;;;;16.83;100.00;100968.66;5043166;28;20215;-77
2021/08/15 00:12:56;;;;;;;7.65;4.75;;;;;;;16.78;100.00;100968.75;5049837;28;20565;-77
2021/08/15 00:15:21;;;;;;;9.30;4.88;;;;;;;16.67;100.00;100963.78;5043809;28;20226;-77
2021/08/15 00:17:47;;;;;;;6.80;4.90;;;;;;;16.68;100.00;100963.47;5032819;28;20214;-78
2021/08/15 00:20:12;;;;;;;7.03;4.32;;;;;;;16.50;100.00;100947.09;5013123;28;20676;-78
2021/08/15 00:22:39;;;;;;;8.68;4.75;;;;;;;16.56;100.00;100957.66;5033324;28;20239;-78
2021/08/15 00:25:09;;;;;;;7.30;4.57;;;;;;;16.49;100.00;100955.63;5019739;28;20183;-77
2021/08/15 00:27:35;;;;;;;10.45;4.88;;;;;;;16.49;100.00;100966.59;5031174;28;20662;-78
2021/08/15 00:30:03;;;;;;;10.95;5.05;;;;;;;16.43;100.00;100968.63;5051214;28;20167;-78
2021/08/15 00:32:31;;;;;;;9.07;4.82;;;;;;;16.47;100.00;100974.31;5016951;28;20730;-77
2021/08/15 00:34:56;;;;;;;9.80;4.70;;;;;;;16.56;100.00;100961.53;5016827;28;20188;-77
2021/08/15 00:37:22;;;;;;;6.78;4.63;;;;;;;16.58;100.00;100966.41;5016894;28;20250;-77
2021/08/15 00:39:50;;;;;;;8.00;4.75;;;;;;;16.56;100.00;100960.41;5050141;28;20180;-78
2021/08/15 00:42:19;;;;;;;7.28;4.68;;;;;;;16.47;100.00;100957.88;5032492;28;20771;-78
2021/08/15 00:44:44;;;;;;;10.68;5.10;;;;;;;16.21;100.00;100948.47;5017664;28;20234;-78
2021/08/15 00:47:12;;;;;;;6.78;4.72;;;;;;;16.22;100.00;100947.34;5032742;28;20713;-78
2021/08/15 00:49:40;;;;;;;8.30;4.60;;;;;;;16.31;100.00;100937.31;5032965;28;20180;-77
2021/08/15 00:52:05;;;;;;;9.43;4.65;;;;;;;16.44;100.00;100922.81;5033098;28;20808;-77
2021/08/15 00:54:33;;;;;;;8.25;4.50;;;;;;;16.39;100.00;100928.38;5024571;28;20188;-77
2021/08/15 00:56:59;;;;;;;8.60;4.80;;;;;;;16.29;100.00;100923.09;5045281;28;20261;-77
2021/08/15 00:59:27;;;;;;;9.70;5.07;;;;;;;16.46;100.00;100915.09;5032956;28;20238;-78
2021/08/15 01:01:56;;;;;;;7.82;5.05;;;;;;;16.48;100.00;100918.34;5033245;28;20319;-77
2021/08/15 01:04:26;;;;;;;7.95;4.72;;;;;;;16.54;100.00;100919.84;5013590;28;20562;-77
2021/08/15 01:06:56;;;;;;;8.25;4.65;;;;;;;16.56;100.00;100912.97;5028240;28;20224;-77
2021/08/15 01:09:24;;;;;;;8.85;5.35;;;;;;;16.70;100.00;100909.09;5057008;28;20184;-79
2021/08/15 01:11:55;;;;;;;8.52;4.70;;;;;;;16.75;100.00;100906.22;5019036;28;20231;-78
2021/08/15 01:14:25;;;;;;;8.93;4.80;;;;;;;16.76;100.00;100913.34;5030016;28;20184;-76
2021/08/15 01:16:51;;;;;;;7.15;4.68;;;;;;;16.87;100.00;100906.53;5042105;28;20306;-77
2021/08/15 01:19:16;;;;;;;7.95;4.72;;;;;;;16.93;100.00;100908.84;5032478;28;20274;-77
2021/08/15 01:21:47;;;;;;;6.72;4.45;;;;;;;16.89;100.00;100900.75;5032001;28;20219;-77
2021/08/15 01:24:20;;;;;;;9.52;5.65;;;;;;;16.69;100.00;100899.25;5020787;28;20279;-77
2021/08/15 01:26:56;;;;;;;6.85;4.32;;;;;;;16.62;100.00;100903.50;5016357;28;20332;-77
2021/08/15 01:29:24;;;;;;;9.20;5.07;;;;;;;16.56;100.00;100899.25;5019461;28;20656;-77
2021/08/15 01:31:50;;;;;;;8.05;4.68;;;;;;;16.70;100.00;100903.63;5032172;28;20235;-77
2021/08/15 01:34:18;;;;;;;9.32;4.95;;;;;;;16.73;100.00;100903.00;5016574;28;20558;-78
2021/08/15 01:36:44;;;;;;;6.82;4.68;;;;;;;16.72;100.00;100917.00;5041900;28;20227;-77
2021/08/15 01:39:11;;;;;;;8.95;4.97;;;;;;;16.83;100.00;100902.78;5035997;28;20202;-77
2021/08/15 01:41:37;;;;;;;9.25;4.60;;;;;;;16.90;100.00;100908.66;5019570;28;20251;-77
2021/08/15 01:44:05;;;;;;;11.05;5.10;;;;;;;16.83;100.00;100897.31;5036431;28;20283;-77
2021/08/15 01:46:33;;;;;;;11.50;4.97;;;;;;;16.83;100.00;100904.69;5016540;28;20231;-77
2021/08/15 01:48:59;;;;;;;7.68;4.90;;;;;;;16.86;100.00;100893.94;5032424;28;20674;-78
2021/08/15 01:51:25;;;;;;;9.52;5.13;;;;;;;16.70;100.00;100897.28;5035543;28;20219;-77
2021/08/15 01:53:52;;;;;;;6.68;4.65;;;;;;;16.46;100.00;100891.22;5027590;28;20668;-77
2021/08/15 01:56:20;;;;;;;6.57;4.53;;;;;;;16.47;100.00;100881.88;5022462;28;20223;-77
2021/08/15 01:58:48;;;;;;;8.13;4.90;;;;;;;16.54;100.00;100878.72;5019678;28;20226;-77
2021/08/15 02:01:22;;;;;;;8.40;4.95;;;;;;;16.57;100.00;100882.50;5035223;28;20261;-78
2021/08/15 02:03:48;;;;;;;7.53;4.47;;;;;;;16.37;100.00;100875.78;5020127;28;20233;-77
2021/08/15 02:06:17;;;;;;;8.43;4.93;;;;;;;16.40;100.00;100875.97;5002463;28;20593;-77
2021/08/15 02:08:46;;;;;;;9.18;5.07;;;;;;;16.33;100.00;100883.78;5036084;28;20217;-77
2021/08/15 02:11:17;;;;;;;9.60;5.30;;;;;;;16.39;100.00;100879.84;5019108;28;20736;-76
2021/08/15 02:13:42;;;;;;;7.88;5.10;;;;;;;16.53;100.00;100875.16;5035621;28;21032;-77
2021/08/15 02:16:10;;;;;;;7.40;4.80;;;;;;;16.46;100.00;100884.91;5037600;28;20231;-78
2021/08/15 02:18:39;;;;;;;10.77;5.28;;;;;;;16.46;100.00;100885.72;5072752;28;20207;-77
2021/08/15 02:21:10;;;;;;;10.75;5.30;;;;;;;16.30;100.00;100886.31;5040408;28;20219;-78
2021/08/15 02:23:38;;;;;;;9.52;5.35;;;;;;;16.36;100.00;100896.09;5048039;28;20545;-78
2021/08/15 02:26:03;;;;;;;8.23;5.15;;;;;;;16.39;100.00;100885.34;5079939;28;20751;-79
2021/08/15 02:28:29;;;;;;;9.95;5.40;;;;;;;16.43;100.00;100880.06;5022787;28;20184;-77
2021/08/15 02:30:54;;;;;;;7.80;5.00;;;;;;;16.45;100.00;100883.31;5035772;28;20226;-78
2021/08/15 02:33:20;;;;;;;9.95;5.45;;;;;;;16.36;100.00;100876.91;5069387;28;20620;-78
2021/08/15 02:35:48;;;;;;;10.75;5.22;;;;;;;16.27;100.00;100895.97;5019668;28;20258;-79
2021/08/15 02:38:16;;;;;;;8.35;5.68;;;;;;;16.18;100.00;100891.50;5054671;28;20188;-79
2021/08/15 02:40:44;;;;;;;9.20;5.90;;;;;;;16.32;100.00;100884.13;5018649;28;20233;-78
2021/08/15 02:43:10;;;;;;;10.43;5.55;;;;;;;16.30;100.00;100864.41;5037337;28;20200;-78
2021/08/15 02:45:36;;;;;;;9.60;5.40;;;;;;;16.36;100.00;100871.44;5035002;28;20215;-77
2021/08/15 02:48:02;;;;;;;8.35;5.35;;;;;;;16.28;100.00;100866.63;5018941;28;20548;-78
2021/08/15 02:50:30;;;;;;;9.43;5.57;;;;;;;16.32;100.00;100862.19;5035971;28;20304;-77
2021/08/15 02:52:58;;;;;;;11.10;5.78;;;;;;;16.33;100.00;100858.31;5057499;28;20215;-77
2021/08/15 02:55:26;;;;;;;10.40;5.78;;;;;;;16.24;100.00;100855.50;5054683;28;20191;-78
2021/08/15 02:57:53;;;;;;;9.10;5.50;;;;;;;16.31;100.00;100861.34;5055899;28;20187;-77
2021/08/15 03:00:19;;;;;;;10.15;5.90;;;;;;;16.35;100.00;100853.34;5018215;28;20192;-77
2021/08/15 03:02:45;;;;;;;9.40;5.63;;;;;;;16.43;100.00;100858.13;5032892;28;20212;-78
2021/08/15 03:05:11;;;;;;;10.65;5.40;;;;;;;16.33;100.00;100864.59;5000098;28;20176;-78
2021/08/15 03:07:36;;;;;;;10.32;6.10;;;;;;;16.36;100.00;100863.19;5038048;28;20180;-77
2021/08/15 03:10:05;;;;;;;9.13;5.88;;;;;;;16.45;100.00;100845.72;5034782;28;20218;-79
2021/08/15 03:12:33;;;;;;;9.02;5.90;;;;;;;16.38;100.00;100850.78;5019042;28;20210;-79
2021/08/15 03:14:59;;;;;;;10.25;5.88;;;;;;;16.23;100.00;100853.84;5019552;28;20179;-78
2021/08/15 03:17:27;;;;;;;11.60;5.88;;;;;;;16.31;100.00;100844.09;5052682;28;20224;-78
2021/08/15 03:19:57;;;;;;;11.27;6.07;;;;;;;16.35;100.00;100839.63;5034688;28;20183;-77
2021/08/15 03:22:25;;;;;;;10.35;5.35;;;;;;;16.29;100.00;100829.88;5034015;28;20232;-77
2021/08/15 03:24:53;;;;;;;10.80;5.47;;;;;;;16.25;100.00;100828.88;5034653;28;20187;-78
2021/08/15 03:27:23;;;;;;;8.80;6.03;;;;;;;16.18;100.00;100828.47;5047634;28;20218;-79
2021/08/15 03:29:51;;;;;;;10.02;5.75;;;;;;;16.10;100.00;100826.41;5022994;28;20271;-79
2021/08/15 03:32:19;;;;;;;9.30;5.72;;;;;;;16.24;100.00;100827.25;5022721;28;20227;-78
2021/08/15 03:34:45;;;;;;;11.50;5.70;;;;;;;16.12;100.00;100829.66;5036490;28;20176;-77
2021/08/15 03:37:10;;;;;;;8.18;5.10;;;;;;;16.10;100.00;100820.94;5041222;28;20661;-78
2021/08/15 03:39:36;;;;;;;9.90;5.28;;;;;;;16.11;100.00;100819.78;5041392;28;20198;-78
2021/08/15 03:42:02;;;;;;;10.40;5.82;;;;;;;16.09;100.00;100815.75;5057240;28;20243;-79
2021/08/15 03:44:36;;;;;;;10.27;5.72;;;;;;;16.12;100.00;100818.69;5042480;28;20219;-79
2021/08/15 03:47:01;;;;;;;8.13;5.32;;;;;;;16.00;100.00;100810.16;5040891;28;20224;-78
2021/08/15 03:49:34;;;;;;;9.63;5.47;;;;;;;16.03;100.00;100806.00;5056332;28;20211;-78
2021/08/15 03:51:59;;;;;;;8.32;5.35;;;;;;;15.90;100.00;100798.59;5034460;28;20659;-78
2021/08/15 03:54:25;;;;;;;9.15;5.68;;;;;;;16.09;100.00;100791.88;5037664;28;20187;-78
2021/08/15 03:56:55;;;;;;;9.70;5.50;;;;;;;16.07;100.00;100798.78;5022470;28;20231;-77
2021/08/15 03:59:22;;;;;;;9.13;5.05;;;;;;;15.92;100.00;100797.16;5060100;28;20643;-78
2021/08/15 04:01:52;;;;;;;8.65;4.97;;;;;;;15.96;100.00;100806.38;5017673;28;20234;-77
2021/08/15 04:04:17;;;;;;;8.95;5.13;;;;;;;16.09;100.00;100805.59;5014265;28;20259;-78
2021/08/15 04:06:43;;;;;;;11.98;5.30;;;;;;;16.18;100.00;100803.78;5030773;28;20220;-78
2021/08/15 04:09:12;;;;;;;9.43;5.15;;;;;;;16.13;100.00;100812.06;5018957;28;20219;-79
2021/08/15 04:11:38;;;;;;;7.82;5.10;;;;;;;16.13;100.00;100803.84;5018247;28;20402;-77
2021/08/15 04:14:04;;;;;;;11.25;5.07;;;;;;;16.10;100.00;100804.47;5034467;28;20203;-78
2021/08/15 04:16:30;;;;;;;9.60;5.18;;;;;;;16.09;100.00;100800.09;5017797;28;20232;-77
2021/08/15 04:18:56;;;;;;;7.95;4.80;;;;;;;16.03;100.00;100808.75;5030746;28;20608;-78
2021/08/15 04:21:24;;;;;;;12.48;5.63;;;;;;;16.19;100.00;100792.53;5045829;28;20738;-78
2021/08/15 04:23:50;;;;;;;8.82;5.13;;;;;;;16.18;100.00;100798.31;5026174;28;20252;-78
2021/08/15 04:26:16;;;;;;;10.95;5.78;;;;;;;16.08;100.00;100795.75;5038839;28;20231;-78
2021/08/15 04:28:43;;;;;;;9.15;4.95;;;;;;;16.28;100.00;100798.09;5018488;28;20278;-77
2021/08/15 04:31:12;;;;;;;11.20;5.63;;;;;;;16.31;100.00;100778.31;5018650;28;20253;-78
2021/08/15 04:33:42;;;;;;;10.45;5.35;;;;;;;16.33;100.00;100778.81;5036519;28;20565;-78
2021/08/15 04:36:07;;;;;;;9.27;5.25;;;;;;;16.38;100.00;100784.19;5035920;28;20239;-78
2021/08/15 04:38:33;;;;;;;10.63;5.00;;;;;;;16.50;100.00;100779.81;5035671;28;20727;-78
2021/08/15 04:41:01;;;;;;;8.93;4.90;;;;;;;16.42;100.00;100774.22;5054317;28;20247;-78
2021/08/15 04:43:26;;;;;;;7.43;4.93;;;;;;;16.69;100.00;100774.97;5051580;28;20187;-77
2021/08/15 04:45:54;;;;;;;11.90;4.82;;;;;;;16.72;100.00;100769.69;5035444;28;20786;-78
2021/08/15 04:48:20;;;;;;;10.18;4.72;;;;;;;16.90;100.00;100765.94;5019852;28;20680;-78
2021/08/15 04:50:45;;;;;;;9.40;4.80;;;;;;;16.87;100.00;100763.84;5034976;28;20223;-77
2021/08/15 04:53:11;;;;;;;10.25;4.75;;;;;;;16.96;100.00;100760.03;5025083;28;20210;-78
2021/08/15 04:55:42;;;;;;;9.63;5.03;;;;;;;16.90;100.00;100763.19;5048176;28;20235;-78
2021/08/15 04:58:07;;;;;;;8.23;4.63;;;;;;;16.82;100.00;100763.94;5020666;28;20715;-78
2021/08/15 05:00:35;;;;;;;7.50;4.45;;;;;;;16.91;100.00;100766.78;5051531;28;20592;-78
2021/08/15 05:03:01;;;;;;;9.82;4.82;;;;;;;16.78;100.00;100782.16;5053813;28;20229;-79
2021/08/15 05:05:26;;;;;;;9.05;4.45;;;;;;;16.71;100.00;100781.75;5023498;28;20219;-79
2021/08/15 05:07:54;;;;;;;5.95;4.72;;;;;;;16.97;100.00;100788.28;5025509;28;20251;-78
2021/08/15 05:10:20;;;;;;;7.38;4.85;;;;;;;16.96;100.00;100792.16;5040279;28;20199;-79
2021/08/15 05:12:48;;;;;;;9.60;5.25;;;;;;;17.04;100.00;100791.41;5039700;28;20243;-79
2021/08/15 05:15:13;;;;;;;8.30;4.38;;;;;;;17.14;100.00;100783.75;5006392;28;20191;-78
2021/08/15 05:17:41;;;;;;;5.43;4.60;;;;;;;17.02;100.00;100790.91;5055865;28;20215;-79
2021/08/15 05:20:07;;;;;;;8.25;4.70;;;;;;;17.28;100.00;100794.69;5053132;28;20191;-78
2021/08/15 05:22:35;;;;;;;7.90;4.47;;;;;;;17.31;100.00;100788.56;5004546;28;20207;-79
2021/08/15 05:25:01;;;;;;;9.15;5.13;;;;;;;17.33;100.00;100785.19;5056977;28;20179;-79
2021/08/15 05:27:26;;;;;;;11.65;5.57;;;;;;;17.46;100.00;100781.56;5040591;28;20583;-78
2021/08/15 05:29:54;;;;;;;6.55;4.25;;;;;;;17.70;100.00;100790.28;5021458;28;20180;-78
2021/08/15 05:32:19;;;;;;;7.88;4.68;;;;;;;17.66;100.00;100781.03;5037185;28;20236;-78
2021/08/15 05:34:45;;;;;;;6.47;4.65;;;;;;;17.67;100.00;100771.66;5038552;28;20215;-77
2021/08/15 05:37:13;;;;;;;8.00;4.32;;;;;;;17.82;100.00;100765.78;5074509;28;20232;-77
2021/08/15 05:39:39;;;;;;;8.38;4.53;;;;;;;17.67;100.00;100757.91;5023209;28;20254;-78
2021/08/15 05:42:05;;;;;;;7.95;4.22;;;;;;;17.60;100.00;100752.09;5056557;28;20323;-77
2021/08/15 05:44:33;;;;;;;6.60;4.50;;;;;;;17.87;100.00;100768.38;5020839;28;20175;-78
2021/08/15 05:47:08;;;;;;;7.82;4.43;;;;;;;17.85;100.00;100770.63;5033936;28;20294;-77
2021/08/15 05:49:33;;;;;;;8.18;4.80;;;;;;;17.80;100.00;100766.09;5019165;28;20545;-77
2021/08/15 05:51:59;;;;;;;9.02;4.50;;;;;;;17.83;100.00;100759.94;5052952;28;20393;-78
2021/08/15 05:54:24;;;;;;;9.45;4.70;;;;;;;17.95;100.00;100756.63;5085619;28;20191;-79
2021/08/15 05:56:50;;;;;;;7.60;4.30;;;;;;;17.87;100.00;100766.41;5056282;28;20227;-76
2021/08/15 05:59:15;;;;;;;7.45;5.03;;;;;;;18.07;100.00;100765.06;5021979;28;20175;-77
2021/08/15 06:01:41;;;;;;;8.35;4.75;;;;;;;18.23;100.00;100770.63;5036714;28;20231;-77
2021/08/15 06:04:07;;;;;;;8.27;4.75;;;;;;;18.24;100.00;100764.00;5055869;28;20191;-78
2021/08/15 06:06:34;;;;;;;9.75;5.10;;;;;;;18.20;100.00;100759.44;5042071;28;20212;-79
2021/08/15 06:09:00;;;;;;;10.13;4.65;;;;;;;18.19;100.00;100764.16;5034803;28;20184;-77
2021/08/15 06:11:26;;;;;;;8.18;4.85;;;;;;;18.10;100.00;100753.47;5056603;28;20283;-78
2021/08/15 06:13:57;;;;;;;7.60;4.55;;;;;;;18.25;100.00;100762.06;5075607;28;20213;-80
2021/08/15 06:16:23;;;;;;;7.97;4.68;;;;;;;18.44;100.00;100749.63;5070025;28;20212;-77
2021/08/15 06:18:51;;;;;;;6.72;4.63;;;;;;;18.54;100.00;100744.63;5036151;28;20164;-78
2021/08/15 06:21:20;;;;;;;10.32;5.18;;;;;;;18.63;100.00;100747.41;5064226;28;20289;-77
2021/08/15 06:23:46;;;;;;;10.43;5.32;;;;;;;18.67;100.00;100751.13;5088850;28;20191;-79
2021/08/15 06:26:12;;;;;;;9.13;5.28;;;;;;;18.91;100.00;100741.25;5028505;28;20212;-79
2021/08/15 06:28:40;;;;;;;9.57;5.07;;;;;;;19.08;100.00;100750.34;5060807;28;20217;-80
2021/08/15 06:31:06;;;;;;;9.80;5.40;;;;;;;19.17;100.00;100762.16;5058241;28;20211;-80
2021/08/15 06:33:31;;;;;;;10.48;5.65;;;;;;;19.09;100.00;100754.72;5025931;28;20198;-79
2021/08/15 06:35:57;;;;;;;10.27;6.00;;;;;;;19.12;100.00;100762.34;5021761;28;20222;-79
2021/08/15 06:38:22;;;;;;;12.05;6.15;;;;;;;19.20;100.00;100753.25;5020299;28;20179;-80
2021/08/15 06:40:48;;;;;;;9.20;5.38;;;;;;;19.23;100.00;100749.03;5020669;28;20228;-81
2021/08/15 06:43:17;;;;;;;10.95;5.63;;;;;;;19.26;100.00;100751.94;5055923;28;20210;-78
2021/08/15 06:45:43;;;;;;;11.13;5.55;;;;;;;19.36;100.00;100755.16;5038132;28;20220;-80
2021/08/15 06:48:11;;;;;;;8.13;5.80;;;;;;;19.16;100.00;100755.03;5022108;28;20286;-78
2021/08/15 06:50:40;;;;;;;11.05;6.47;;;;;;;19.28;100.00;100768.94;5040207;28;20681;-79
2021/08/15 06:53:05;;;;;;;10.20;5.80;;;;;;;19.03;100.00;100757.97;5025308;28;20212;-79
2021/08/15 06:55:31;;;;;;;8.00;5.82;;;;;;;18.98;100.00;100752.63;5077334;28;20219;-78
2021/08/15 06:57:57;;;;;;;11.80;5.82;;;;;;;19.07;100.00;100758.94;5071402;28;20560;-78
2021/08/15 07:00:22;;;;;;;9.95;5.70;;;;;;;19.27;100.00;100758.25;5040378;28;20191;-78
2021/08/15 07:02:48;;;;;;;10.60;5.68;;;;;;;19.36;100.00;100757.91;5040106;28;20215;-78
2021/08/15 07:05:14;;;;;;;11.05;6.20;;;;;;;19.51;100.00;100749.13;5022459;28;20186;-77
2021/08/15 07:07:40;;;;;;;8.25;5.70;;;;;;;19.87;100.00;100750.34;5035292;28;20239;-78
2021/08/15 07:10:06;;;;;;;11.90;5.93;;;;;;;20.06;100.00;100751.53;5033194;28;20558;-77
2021/08/15 07:12:34;;;;;;;10.60;6.28;;;;;;;20.09;100.00;100747.28;5044098;28;20572;-76
2021/08/15 07:15:02;;;;;;;11.02;6.70;;;;;;;20.07;100.00;100747.66;5035643;28;20266;-77
2021/08/15 07:17:31;;;;;;;8.43;5.45;;;;;;;20.02;100.00;100755.31;5030843;28;20728;-76
2021/08/15 07:19:59;;;;;;;9.88;5.53;;;;;;;20.31;100.00;100752.53;5015917;28;20180;-75
2021/08/15 07:22:27;;;;;;;11.48;6.00;;;;;;;20.04;100.00;100747.50;5034551;28;20637;-75
2021/08/15 07:24:55;;;;;;;9.65;5.70;;;;;;;20.14;100.00;100755.38;5042452;28;20188;-75
2021/08/15 07:27:24;;;;;;;11.02;5.95;;;;;;;20.00;100.00;100754.81;5041385;28;20242;-75
2021/08/15 07:29:49;;;;;;;9.13;5.75;;;;;;;20.20;100.00;100751.28;5066696;28;20214;-74
2021/08/15 07:32:15;;;;;;;10.23;5.47;;;;;;;20.55;100.00;100751.56;5017160;28;20630;-75
2021/08/15 07:34:40;;;;;;;9.32;5.28;;;;;;;20.67;100.00;100745.34;5034092;28;20607;-76
2021/08/15 07:37:08;;;;;;;10.45;5.25;;;;;;;20.39;100.00;100759.97;5033496;28;20215;-75
2021/08/15 07:39:34;;;;;;;9.60;5.22;;;;;;;20.57;100.00;100752.03;5017271;28;20695;-74
2021/08/15 07:42:05;;;;;;;9.80;5.47;;;;;;;20.61;100.00;100749.41;5033857;28;20219;-75
2021/08/15 07:44:33;;;;;;;8.05;5.03;;;;;;;20.80;100.00;100734.03;5051554;28;20184;-75
2021/08/15 07:46:58;;;;;;;8.88;5.82;;;;;;;20.99;100.00;100731.59;5033299;28;20214;-74
2021/08/15 07:49:26;;;;;;;8.32;4.85;;;;;;;21.07;100.00;100722.41;5018122;28;20179;-73
2021/08/15 07:51:52;;;;;;;9.43;4.90;;;;;;;21.44;100.00;100731.31;5016633;28;20230;-75
2021/08/15 07:54:18;;;;;;;7.80;4.43;;;;;;;21.71;99.82;100736.22;5045473;28;20188;-76
2021/08/15 07:56:46;;;;;;;7.75;4.40;;;;;;;21.50;98.00;100734.66;5024999;28;20642;-76
2021/08/15 07:59:14;;;;;;;7.28;4.53;;;;;;;21.75;98.41;100734.38;5017707;28;20657;-75
2021/08/15 08:01:40;;;;;;;7.03;4.40;;;;;;;21.85;97.94;100739.44;5033495;28;20310;-74
2021/08/15 08:04:10;;;;;;;7.03;4.00;;;;;;;21.92;95.04;100734.16;5013826;28;20560;-76
2021/08/15 08:06:38;;;;;;;6.75;4.03;;;;;;;22.16;94.54;100749.66;5013804;28;20216;-72
2021/08/15 08:09:03;;;;;;;7.80;4.50;;;;;;;21.81;96.65;100738.53;5047675;28;20234;-74
2021/08/15 08:11:31;;;;;;;6.38;4.00;;;;;;;21.99;95.50;100729.66;5016823;28;20227;-75
2021/08/15 08:13:59;;;;;;;5.60;4.00;;;;;;;21.96;94.59;100737.84;5066329;28;20195;-74
2021/08/15 08:16:25;;;;;;;7.03;4.53;;;;;;;21.94;96.14;100734.63;5033036;28;20228;-73
2021/08/15 08:18:53;;;;;;;6.75;4.15;;;;;;;22.23;92.76;100729.69;5034636;28;20550;-76
2021/08/15 08:21:21;;;;;;;7.88;4.43;;;;;;;22.43;92.48;100729.56;5036017;28;20222;-73
2021/08/15 08:23:47;;;;;;;8.27;3.97;;;;;;;22.49;92.55;100728.16;5066438;28;20183;-72
2021/08/15 08:26:14;;;;;;;8.38;4.30;;;;;;;22.29;92.06;100731.91;5021505;28;20207;-74
2021/08/15 08:28:45;;;;;;;7.10;3.65;;;;;;;22.33;91.49;100732.81;5032686;28;20174;-74
2021/08/15 08:31:10;;;;;;;7.15;3.80;;;;;;;22.42;92.65;100739.03;5049033;28;20292;-75
2021/08/15 08:33:38;;;;;;;7.78;3.72;;;;;;;22.66;90.08;100725.16;5066736;28;20189;-74
2021/08/15 08:36:09;;;;;;;6.38;3.60;;;;;;;22.71;90.37;100724.88;5051006;28;20223;-75
2021/08/15 08:38:35;;;;;;;6.45;3.40;;;;;;;22.75;86.97;100728.59;5015876;28;20183;-76
2021/08/15 08:41:03;;;;;;;6.03;3.30;;;;;;;22.42;88.73;100725.19;5016800;28;20298;-73
2021/08/15 08:43:30;;;;;;;5.20;3.30;;;;;;;22.44;90.52;100709.81;5013366;28;20176;-73
2021/08/15 08:45:56;;;;;;;5.53;3.17;;;;;;;23.06;88.07;100708.19;5029385;28;20212;-73
2021/08/15 08:48:24;;;;;;;6.93;3.40;;;;;;;22.91;85.95;100708.94;5015942;28;20186;-72
2021/08/15 08:50:54;;;;;;;3.75;2.75;;;;;;;22.93;85.98;100705.78;5018010;28;20595;-74
2021/08/15 08:53:22;;;;;;;5.20;3.10;;;;;;;23.07;86.65;100695.91;5022532;28;20182;-76
2021/08/15 08:55:48;;;;;;;5.55;3.28;;;;;;;22.95;87.40;100704.28;5016357;28;20707;-72
2021/08/15 08:58:14;;;;;;;4.43;3.28;;;;;;;23.02;88.43;100701.72;5043838;28;20191;-75
2021/08/15 09:00:39;;;;;;;6.07;3.03;;;;;;;23.39;83.43;100692.06;5015717;28;20227;-76
2021/08/15 09:03:05;;;;;;;5.95;3.25;;;;;;;23.25;88.07;100703.56;5016676;28;20189;-73
2021/08/15 09:05:34;;;;;;;5.65;3.17;;;;;;;23.21;85.49;100701.88;5019269;28;20226;-76
2021/08/15 09:08:03;;;;;;;4.15;2.80;;;;;;;23.26;85.33;100696.06;5034958;28;20295;-76
2021/08/15 09:10:38;;;;;;;4.32;2.78;;;;;;;23.32;82.80;100692.66;5034269;28;20253;-72
2021/08/15 09:13:08;;;;;;;5.32;3.17;;;;;;;23.11;84.04;100696.81;5037557;28;20290;-77
2021/08/15 09:15:39;;;;;;;5.40;3.13;;;;;;;23.28;86.04;100690.97;5032765;28;20228;-77
2021/08/15 09:18:04;;;;;;;5.30;3.28;;;;;;;23.85;80.72;100690.16;5033315;28;20191;-76
2021/08/15 09:20:43;;;;;;;4.30;2.92;;;;;;;23.77;83.38;100680.03;5020180;28;20230;-77
2021/08/15 09:23:23;;;;;;;5.85;3.10;;;;;;;23.82;82.31;100685.28;5021578;28;20684;-75
2021/08/15 09:26:28;;;;;;;5.30;3.30;;;;;;;23.71;81.79;100683.44;5036808;28;20294;-77
2021/08/15 09:28:56;;;;;;;3.72;2.70;;;;;;;24.48;81.93;100675.81;5044050;28;20179;-75
2021/08/15 09:31:31;;;;;;;3.80;2.90;;;;;;;23.96;79.25;100675.34;5043402;28;20232;-78
2021/08/15 09:33:58;;;;;;;3.95;2.63;;;;;;;24.49;77.73;100667.13;5017197;28;20587;-79
2021/08/15 09:36:36;;;;;;;4.60;2.90;;;;;;;24.56;75.92;100664.50;5015698;28;20764;-79
2021/08/15 09:39:04;;;;;;;4.28;2.85;;;;;;;24.87;75.23;100656.81;5025972;28;20196;-77
2021/08/15 09:41:36;;;;;;;4.70;2.95;;;;;;;24.78;70.27;100652.66;5038707;28;20223;-77
2021/08/15 09:44:27;;;;;;;6.05;2.75;;;;;;;24.96;71.08;100651.88;5031721;28;20184;-73
2021/08/15 09:47:09;;;;;;;5.65;3.15;;;;;;;24.66;71.43;100655.56;5074373;28;20215;-75
2021/08/15 09:49:36;;;;;;;4.18;2.67;;;;;;;24.80;71.78;100653.09;5046797;28;20665;-76
2021/08/15 09:52:02;;;;;;;5.03;2.72;;;;;;;25.15;70.76;100652.63;5020417;28;20224;-76
2021/08/15 09:54:31;;;;;;;5.30;2.50;;;;;;;25.34;69.38;100649.00;5045699;28;20749;-75
2021/08/15 09:56:59;;;;;;;3.05;2.45;;;;;;;25.72;65.49;100653.31;5067040;28;20322;-76
2021/08/15 09:59:25;;;;;;;5.78;2.78;;;;;;;25.21;65.31;100653.94;5032528;28;20183;-77
2021/08/15 10:01:55;;;;;;;4.35;3.10;;;;;;;24.95;68.09;100650.25;5056091;28;20286;-77
2021/08/15 10:04:22;;;;;;;5.28;2.85;;;;;;;25.00;66.22;100651.91;5033275;28;20194;-81
2021/08/15 10:06:56;;;;;;;4.68;3.03;;;;;;;24.71;69.50;100654.47;5022788;28;20279;-80
2021/08/15 10:09:23;;;;;;;7.70;3.75;;;;;;;25.07;67.77;100654.84;5024118;28;20911;-80
2021/08/15 10:11:49;;;;;;;6.03;3.03;;;;;;;25.04;65.05;100641.69;5056610;28;20250;-77
2021/08/15 10:14:14;;;;;;;5.75;3.50;;;;;;;24.77;65.87;100651.03;5041323;28;20183;-78
2021/08/15 10:17:03;;;;;;;4.50;3.03;;;;;;;24.94;66.79;100642.28;5072708;28;20318;-80
2021/08/15 10:19:45;;;;;;;4.03;3.30;;;;;;;24.87;67.52;100653.22;5024601;28;20176;-79
2021/08/15 10:22:11;;;;;;;5.43;3.65;;;;;;;25.12;66.07;100646.22;5025390;28;20704;-80
2021/08/15 10:24:48;;;;;;;6.38;3.60;;;;;;;25.08;63.58;100639.78;5033708;28;20188;-79
2021/08/15 10:27:41;;;;;;;4.85;3.40;;;;;;;25.08;66.43;100648.13;5035666;28;20214;-81
2021/08/15 10:30:15;;;;;;;6.43;3.97;;;;;;;25.24;65.96;100633.75;5058664;28;20187;-80
2021/08/15 10:33:04;;;;;;;5.93;3.90;;;;;;;25.42;65.42;100629.31;5058377;28;20306;-79
2021/08/15 10:35:38;;;;;;;4.95;3.70;;;;;;;25.28;67.72;100628.25;5044784;28;20597;-81
2021/08/15 10:38:03;;;;;;;5.65;3.58;;;;;;;25.58;65.35;100633.56;5022830;28;20198;-78
2021/08/15 10:40:38;;;;;;;6.90;4.20;;;;;;;25.15;64.32;100624.81;5037718;28;20223;-78
2021/08/15 10:43:13;;;;;;;5.05;3.80;;;;;;;25.51;68.31;100627.03;5038662;28;20242;-78
2021/08/15 10:45:38;;;;;;;4.82;3.53;;;;;;;26.11;65.19;100619.31;5039144;28;20576;-79
2021/08/15 10:48:11;;;;;;;6.28;3.88;;;;;;;25.63;63.18;100630.47;5022606;28;20175;-80
2021/08/15 10:50:57;;;;;;;6.70;4.00;;;;;;;25.68;62.75;100612.69;5059408;28;20211;-79
2021/08/15 10:56:02;;;;;;;6.05;4.45;;;;;;;25.31;63.82;100619.97;5046124;28;20222;-78
2021/08/15 10:58:48;;;;;;;6.20;3.80;;;;;;;25.22;65.46;100613.84;5069923;28;20183;-80
2021/08/15 11:01:20;;;;;;;5.35;3.97;;;;;;;25.06;67.02;100611.53;5052152;28;20252;-80
2021/08/15 11:03:51;;;;;;;7.45;4.78;;;;;;;25.47;65.71;100608.69;5035920;28;20715;-78
2021/08/15 11:06:36;;;;;;;5.60;3.78;;;;;;;25.94;62.67;100599.56;5069891;28;20219;-78
2021/08/15 11:09:02;;;;;;;5.40;3.83;;;;;;;26.12;61.50;100609.78;5068525;28;20187;-78
2021/08/15 11:11:34;;;;;;;6.53;4.03;;;;;;;26.14;59.97;100598.28;5053714;28;20327;-80
2021/08/15 11:14:18;;;;;;;5.35;3.85;;;;;;;25.92;61.47;100588.78;5018575;28;20207;-77
2021/08/15 11:16:45;;;;;;;6.22;4.45;;;;;;;25.56;63.00;100598.91;5052545;28;20353;-77
2021/08/15 11:19:18;;;;;;;4.97;3.90;;;;;;;25.46;62.86;100590.38;5036814;28;20203;-75
2021/08/15 11:22:20;;;;;;;6.90;3.88;;;;;;;25.28;65.36;100587.31;5037218;28;20224;-77
2021/08/15 11:24:45;;;;;;;6.07;3.88;;;;;;;25.79;66.31;100586.63;5051547;28;20253;-75